sensor_id;sensor_type;location;lat;lon;timestamp;temperature;humidity
15625;DHT22;7912;51.376;6.126;2023-02-10T00:01:37;8.20;99.90
15625;DHT22;7912;51.376;6.126;2023-02-10T00:04:05;8.20;99.90
15625;DHT22;7912;51.376;6.126;2023-02-10T00:06:33;8.20;99.90
15625;DHT22;7912;51.376;6.126;2023-02-10T00:09:01;8.20;99.90
15625;DHT22;7912;51.376;6.126;2023-02-10T00:11:30;8.20;99.90
15625;DHT22;7912;51.376;6.126;2023-02-10T00:14:17;8.20;99.90
15625;DHT22;7912;51.376;6.126;2023-02-10T00:16:45;8.20;99.90
15625;DHT22;7912;51.376;6.126;2023-02-10T00:19:17;8.20;99.90
15625;DHT22;7912;51.376;6.126;2023-02-10T00:21:45;8.20;99.90
15625;DHT22;7912;51.376;6.126;2023-02-10T00:24:13;8.10;99.90
15625;DHT22;7912;51.376;6.126;2023-02-10T00:26:41;8.10;99.90
15625;DHT22;7912;51.376;6.126;2023-02-10T00:29:08;8.10;99.90
15625;DHT22;7912;51.376;6.126;2023-02-10T00:31:36;8.10;99.90
15625;DHT22;7912;51.376;6.126;2023-02-10T00:34:03;8.10;99.90
15625;DHT22;7912;51.376;6.126;2023-02-10T00:36:31;8.00;99.90
15625;DHT22;7912;51.376;6.126;2023-02-10T00:38:58;8.10;99.90
15625;DHT22;7912;51.376;6.126;2023-02-10T00:41:26;8.10;99.90
15625;DHT22;7912;51.376;6.126;2023-02-10T00:43:53;8.00;99.90
15625;DHT22;7912;51.376;6.126;2023-02-10T00:46:21;8.10;99.90
15625;DHT22;7912;51.376;6.126;2023-02-10T00:48:49;8.10;99.90
15625;DHT22;7912;51.376;6.126;2023-02-10T00:51:17;8.00;99.90
15625;DHT22;7912;51.376;6.126;2023-02-10T00:53:45;8.00;99.90
15625;DHT22;7912;51.376;6.126;2023-02-10T00:56:15;8.10;99.90
15625;DHT22;7912;51.376;6.126;2023-02-10T00:58:46;8.10;99.90
15625;DHT22;7912;51.376;6.126;2023-02-10T01:01:14;8.00;99.90
15625;DHT22;7912;51.376;6.126;2023-02-10T01:03:41;8.10;99.90
15625;DHT22;7912;51.376;6.126;2023-02-10T01:06:10;8.10;99.90
15625;DHT22;7912;51.376;6.126;2023-02-10T01:08:40;8.10;99.90
15625;DHT22;7912;51.376;6.126;2023-02-10T01:11:10;8.00;99.90
15625;DHT22;7912;51.376;6.126;2023-02-10T01:13:40;8.00;99.90
15625;DHT22;7912;51.376;6.126;2023-02-10T01:16:13;8.00;99.90
15625;DHT22;7912;51.376;6.126;2023-02-10T01:18:44;7.90;99.90
15625;DHT22;7912;51.376;6.126;2023-02-10T01:21:18;7.90;99.90
15625;DHT22;7912;51.376;6.126;2023-02-10T01:23:47;7.80;99.90
15625;DHT22;7912;51.376;6.126;2023-02-10T01:26:17;7.70;99.90
15625;DHT22;7912;51.376;6.126;2023-02-10T01:28:45;7.60;99.90
15625;DHT22;7912;51.376;6.126;2023-02-10T01:31:16;7.50;99.90
15625;DHT22;7912;51.376;6.126;2023-02-10T01:33:46;7.40;99.90
15625;DHT22;7912;51.376;6.126;2023-02-10T01:36:16;7.30;99.90
15625;DHT22;7912;51.376;6.126;2023-02-10T01:38:49;7.20;99.90
15625;DHT22;7912;51.376;6.126;2023-02-10T01:41:20;7.10;99.90
15625;DHT22;7912;51.376;6.126;2023-02-10T01:46:54;6.90;99.90
15625;DHT22;7912;51.376;6.126;2023-02-10T01:49:27;6.80;99.90
15625;DHT22;7912;51.376;6.126;2023-02-10T01:52:14;6.80;99.90
15625;DHT22;7912;51.376;6.126;2023-02-10T01:54:49;6.70;99.90
15625;DHT22;7912;51.376;6.126;2023-02-10T01:57:21;6.60;99.90
15625;DHT22;7912;51.376;6.126;2023-02-10T01:59:50;6.50;99.90
15625;DHT22;7912;51.376;6.126;2023-02-10T02:02:18;6.50;99.90
15625;DHT22;7912;51.376;6.126;2023-02-10T02:04:53;6.40;99.90
15625;DHT22;7912;51.376;6.126;2023-02-10T02:07:28;6.30;99.90
15625;DHT22;7912;51.376;6.126;2023-02-10T02:10:00;6.20;99.90
15625;DHT22;7912;51.376;6.126;2023-02-10T02:12:41;6.20;99.90
15625;DHT22;7912;51.376;6.126;2023-02-10T02:21:34;5.90;99.90
15625;DHT22;7912;51.376;6.126;2023-02-10T02:24:41;5.80;99.90
15625;DHT22;7912;51.376;6.126;2023-02-10T02:36:27;5.50;99.90
15625;DHT22;7912;51.376;6.126;2023-02-10T02:39:01;5.40;99.90
15625;DHT22;7912;51.376;6.126;2023-02-10T02:41:31;5.40;99.90
15625;DHT22;7912;51.376;6.126;2023-02-10T02:44:01;5.30;99.90
15625;DHT22;7912;51.376;6.126;2023-02-10T02:46:57;5.30;99.90
15625;DHT22;7912;51.376;6.126;2023-02-10T02:49:53;5.20;99.90
15625;DHT22;7912;51.376;6.126;2023-02-10T03:01:35;5.10;99.90
15625;DHT22;7912;51.376;6.126;2023-02-10T03:04:12;5.00;99.90
15625;DHT22;7912;51.376;6.126;2023-02-10T03:06:42;5.00;99.90
15625;DHT22;7912;51.376;6.126;2023-02-10T03:09:10;5.00;99.90
15625;DHT22;7912;51.376;6.126;2023-02-10T03:11:38;5.00;99.90
15625;DHT22;7912;51.376;6.126;2023-02-10T03:14:05;5.00;99.90
15625;DHT22;7912;51.376;6.126;2023-02-10T03:16:33;5.00;99.90
15625;DHT22;7912;51.376;6.126;2023-02-10T03:19:00;5.00;99.90
15625;DHT22;7912;51.376;6.126;2023-02-10T03:21:28;5.00;99.90
15625;DHT22;7912;51.376;6.126;2023-02-10T03:23:56;4.90;99.90
15625;DHT22;7912;51.376;6.126;2023-02-10T03:26:24;4.90;99.90
15625;DHT22;7912;51.376;6.126;2023-02-10T03:28:51;4.90;99.90
15625;DHT22;7912;51.376;6.126;2023-02-10T03:31:19;4.90;99.90
15625;DHT22;7912;51.376;6.126;2023-02-10T03:33:46;4.80;99.90
15625;DHT22;7912;51.376;6.126;2023-02-10T03:36:14;4.80;99.90
15625;DHT22;7912;51.376;6.126;2023-02-10T03:38:42;4.80;99.90
15625;DHT22;7912;51.376;6.126;2023-02-10T03:41:10;4.80;99.90
15625;DHT22;7912;51.376;6.126;2023-02-10T03:43:38;4.70;99.90
15625;DHT22;7912;51.376;6.126;2023-02-10T03:46:06;4.70;99.90
15625;DHT22;7912;51.376;6.126;2023-02-10T03:48:34;4.70;99.90
15625;DHT22;7912;51.376;6.126;2023-02-10T03:51:04;4.60;99.90
15625;DHT22;7912;51.376;6.126;2023-02-10T03:53:32;4.60;99.90
15625;DHT22;7912;51.376;6.126;2023-02-10T03:56:01;4.60;99.90
15625;DHT22;7912;51.376;6.126;2023-02-10T03:58:29;4.50;99.90
15625;DHT22;7912;51.376;6.126;2023-02-10T04:00:57;4.40;99.90
15625;DHT22;7912;51.376;6.126;2023-02-10T04:03:24;4.40;99.90
15625;DHT22;7912;51.376;6.126;2023-02-10T04:05:52;4.30;99.90
15625;DHT22;7912;51.376;6.126;2023-02-10T04:08:21;4.30;99.90
15625;DHT22;7912;51.376;6.126;2023-02-10T04:10:48;4.30;99.90
15625;DHT22;7912;51.376;6.126;2023-02-10T04:13:16;4.30;99.90
15625;DHT22;7912;51.376;6.126;2023-02-10T04:15:43;4.20;99.90
15625;DHT22;7912;51.376;6.126;2023-02-10T04:18:11;4.20;99.90
15625;DHT22;7912;51.376;6.126;2023-02-10T04:20:38;4.10;99.90
15625;DHT22;7912;51.376;6.126;2023-02-10T04:23:06;4.10;99.90
15625;DHT22;7912;51.376;6.126;2023-02-10T04:25:33;4.00;99.90
15625;DHT22;7912;51.376;6.126;2023-02-10T04:28:01;4.00;99.90
15625;DHT22;7912;51.376;6.126;2023-02-10T04:30:29;4.00;99.90
15625;DHT22;7912;51.376;6.126;2023-02-10T04:32:57;3.90;99.90
15625;DHT22;7912;51.376;6.126;2023-02-10T04:35:24;3.90;99.90
15625;DHT22;7912;51.376;6.126;2023-02-10T04:37:52;3.80;99.90
15625;DHT22;7912;51.376;6.126;2023-02-10T04:40:20;3.80;99.90
15625;DHT22;7912;51.376;6.126;2023-02-10T04:42:47;3.80;99.90
15625;DHT22;7912;51.376;6.126;2023-02-10T04:45:15;3.80;99.90
15625;DHT22;7912;51.376;6.126;2023-02-10T04:47:43;3.80;99.90
15625;DHT22;7912;51.376;6.126;2023-02-10T04:50:10;3.70;99.90
15625;DHT22;7912;51.376;6.126;2023-02-10T04:52:38;3.70;99.90
15625;DHT22;7912;51.376;6.126;2023-02-10T04:55:06;3.80;99.90
15625;DHT22;7912;51.376;6.126;2023-02-10T04:57:34;3.80;99.90
15625;DHT22;7912;51.376;6.126;2023-02-10T05:00:01;3.80;99.90
15625;DHT22;7912;51.376;6.126;2023-02-10T05:02:29;3.80;99.90
15625;DHT22;7912;51.376;6.126;2023-02-10T05:04:57;3.80;99.90
15625;DHT22;7912;51.376;6.126;2023-02-10T05:07:25;3.80;99.90
15625;DHT22;7912;51.376;6.126;2023-02-10T05:09:52;3.80;99.90
15625;DHT22;7912;51.376;6.126;2023-02-10T05:12:24;3.80;99.90
15625;DHT22;7912;51.376;6.126;2023-02-10T05:14:52;3.80;99.90
15625;DHT22;7912;51.376;6.126;2023-02-10T05:17:20;3.80;99.90
15625;DHT22;7912;51.376;6.126;2023-02-10T05:19:48;3.80;99.90
15625;DHT22;7912;51.376;6.126;2023-02-10T05:22:15;3.80;99.90
15625;DHT22;7912;51.376;6.126;2023-02-10T05:24:43;3.80;99.90
15625;DHT22;7912;51.376;6.126;2023-02-10T05:27:11;3.80;99.90
15625;DHT22;7912;51.376;6.126;2023-02-10T05:29:38;3.80;99.90
15625;DHT22;7912;51.376;6.126;2023-02-10T05:32:05;3.80;99.90
15625;DHT22;7912;51.376;6.126;2023-02-10T05:34:33;3.80;99.90
15625;DHT22;7912;51.376;6.126;2023-02-10T05:37:01;3.80;99.90
15625;DHT22;7912;51.376;6.126;2023-02-10T05:39:28;3.80;99.90
15625;DHT22;7912;51.376;6.126;2023-02-10T05:41:57;3.80;99.90
15625;DHT22;7912;51.376;6.126;2023-02-10T05:44:28;3.80;99.90
15625;DHT22;7912;51.376;6.126;2023-02-10T05:46:56;3.80;99.90
15625;DHT22;7912;51.376;6.126;2023-02-10T05:49:24;3.70;99.90
15625;DHT22;7912;51.376;6.126;2023-02-10T05:51:52;3.70;99.90
15625;DHT22;7912;51.376;6.126;2023-02-10T05:54:20;3.70;99.90
15625;DHT22;7912;51.376;6.126;2023-02-10T05:56:48;3.70;99.90
15625;DHT22;7912;51.376;6.126;2023-02-10T05:59:16;3.60;99.90
15625;DHT22;7912;51.376;6.126;2023-02-10T06:01:44;3.60;99.90
15625;DHT22;7912;51.376;6.126;2023-02-10T06:04:11;3.60;99.90
15625;DHT22;7912;51.376;6.126;2023-02-10T06:06:39;3.60;99.90
15625;DHT22;7912;51.376;6.126;2023-02-10T06:09:06;3.60;99.90
15625;DHT22;7912;51.376;6.126;2023-02-10T06:11:33;3.50;99.90
15625;DHT22;7912;51.376;6.126;2023-02-10T06:14:01;3.50;99.90
15625;DHT22;7912;51.376;6.126;2023-02-10T06:16:28;3.50;99.90
15625;DHT22;7912;51.376;6.126;2023-02-10T06:18:56;3.50;99.90
15625;DHT22;7912;51.376;6.126;2023-02-10T06:21:23;3.50;99.90
15625;DHT22;7912;51.376;6.126;2023-02-10T06:23:51;3.40;99.90
15625;DHT22;7912;51.376;6.126;2023-02-10T06:26:19;3.40;99.90
15625;DHT22;7912;51.376;6.126;2023-02-10T06:28:46;3.40;99.90
15625;DHT22;7912;51.376;6.126;2023-02-10T06:31:14;3.40;99.90
15625;DHT22;7912;51.376;6.126;2023-02-10T06:33:41;3.30;99.90
15625;DHT22;7912;51.376;6.126;2023-02-10T06:36:09;3.30;99.90
15625;DHT22;7912;51.376;6.126;2023-02-10T06:38:40;3.30;99.90
15625;DHT22;7912;51.376;6.126;2023-02-10T06:41:07;3.20;99.90
15625;DHT22;7912;51.376;6.126;2023-02-10T06:43:35;3.20;99.90
15625;DHT22;7912;51.376;6.126;2023-02-10T06:46:21;3.20;99.90
15625;DHT22;7912;51.376;6.126;2023-02-10T06:48:48;3.20;99.90
15625;DHT22;7912;51.376;6.126;2023-02-10T06:51:16;3.20;99.90
15625;DHT22;7912;51.376;6.126;2023-02-10T06:53:43;3.20;99.90
15625;DHT22;7912;51.376;6.126;2023-02-10T06:56:12;3.20;99.90
15625;DHT22;7912;51.376;6.126;2023-02-10T06:58:39;3.20;99.90
15625;DHT22;7912;51.376;6.126;2023-02-10T07:01:08;3.20;99.90
15625;DHT22;7912;51.376;6.126;2023-02-10T07:03:38;3.20;99.90
15625;DHT22;7912;51.376;6.126;2023-02-10T07:06:05;3.20;99.90
15625;DHT22;7912;51.376;6.126;2023-02-10T07:08:33;3.20;99.90
15625;DHT22;7912;51.376;6.126;2023-02-10T07:11:01;3.20;99.90
15625;DHT22;7912;51.376;6.126;2023-02-10T07:13:28;3.20;99.90
15625;DHT22;7912;51.376;6.126;2023-02-10T07:15:56;3.20;99.90
15625;DHT22;7912;51.376;6.126;2023-02-10T07:18:23;3.30;99.90
15625;DHT22;7912;51.376;6.126;2023-02-10T07:23:56;3.30;99.90
15625;DHT22;7912;51.376;6.126;2023-02-10T07:26:23;3.30;99.90
15625;DHT22;7912;51.376;6.126;2023-02-10T07:28:51;3.40;99.90
15625;DHT22;7912;51.376;6.126;2023-02-10T07:31:18;3.50;99.90
15625;DHT22;7912;51.376;6.126;2023-02-10T07:33:55;3.50;99.90
15625;DHT22;7912;51.376;6.126;2023-02-10T07:36:22;3.60;99.90
15625;DHT22;7912;51.376;6.126;2023-02-10T07:38:49;3.60;99.90
15625;DHT22;7912;51.376;6.126;2023-02-10T07:41:17;3.70;99.90
15625;DHT22;7912;51.376;6.126;2023-02-10T07:43:44;3.80;99.90
15625;DHT22;7912;51.376;6.126;2023-02-10T07:46:12;3.80;99.90
15625;DHT22;7912;51.376;6.126;2023-02-10T07:48:39;3.90;99.90
15625;DHT22;7912;51.376;6.126;2023-02-10T07:51:06;4.00;99.90
15625;DHT22;7912;51.376;6.126;2023-02-10T07:53:34;4.00;99.90
15625;DHT22;7912;51.376;6.126;2023-02-10T07:56:05;4.10;99.90
15625;DHT22;7912;51.376;6.126;2023-02-10T07:58:32;4.20;99.90
15625;DHT22;7912;51.376;6.126;2023-02-10T08:01:05;4.30;99.90
15625;DHT22;7912;51.376;6.126;2023-02-10T08:03:34;4.30;99.90
15625;DHT22;7912;51.376;6.126;2023-02-10T08:06:02;4.40;99.90
15625;DHT22;7912;51.376;6.126;2023-02-10T08:08:30;4.50;99.90
15625;DHT22;7912;51.376;6.126;2023-02-10T08:10:58;4.50;99.90
15625;DHT22;7912;51.376;6.126;2023-02-10T08:13:25;4.60;99.90
15625;DHT22;7912;51.376;6.126;2023-02-10T08:15:54;4.70;99.90
15625;DHT22;7912;51.376;6.126;2023-02-10T08:18:21;4.70;99.90
15625;DHT22;7912;51.376;6.126;2023-02-10T08:20:49;4.80;99.90
15625;DHT22;7912;51.376;6.126;2023-02-10T08:23:17;4.80;99.90
15625;DHT22;7912;51.376;6.126;2023-02-10T08:25:44;4.90;99.90
15625;DHT22;7912;51.376;6.126;2023-02-10T08:28:12;5.00;99.90
15625;DHT22;7912;51.376;6.126;2023-02-10T08:30:42;5.00;99.90
15625;DHT22;7912;51.376;6.126;2023-02-10T08:33:09;5.10;99.90
15625;DHT22;7912;51.376;6.126;2023-02-10T08:35:38;5.10;99.90
15625;DHT22;7912;51.376;6.126;2023-02-10T08:38:06;5.10;99.90
15625;DHT22;7912;51.376;6.126;2023-02-10T08:40:35;5.20;99.90
15625;DHT22;7912;51.376;6.126;2023-02-10T08:43:03;5.20;99.90
15625;DHT22;7912;51.376;6.126;2023-02-10T08:45:30;5.30;99.90
15625;DHT22;7912;51.376;6.126;2023-02-10T08:47:57;5.40;99.90
15625;DHT22;7912;51.376;6.126;2023-02-10T08:50:25;5.40;99.90
15625;DHT22;7912;51.376;6.126;2023-02-10T08:52:53;5.50;99.90
15625;DHT22;7912;51.376;6.126;2023-02-10T08:55:21;5.60;99.90
15625;DHT22;7912;51.376;6.126;2023-02-10T08:57:56;5.60;99.90
15625;DHT22;7912;51.376;6.126;2023-02-10T09:00:23;5.70;99.90
15625;DHT22;7912;51.376;6.126;2023-02-10T09:02:51;5.70;99.90
15625;DHT22;7912;51.376;6.126;2023-02-10T09:05:18;5.80;99.90
15625;DHT22;7912;51.376;6.126;2023-02-10T09:07:46;5.90;99.90
15625;DHT22;7912;51.376;6.126;2023-02-10T09:10:14;5.90;99.90
15625;DHT22;7912;51.376;6.126;2023-02-10T09:12:42;6.00;99.90
15625;DHT22;7912;51.376;6.126;2023-02-10T09:15:10;6.00;99.90
15625;DHT22;7912;51.376;6.126;2023-02-10T09:17:38;6.10;99.90
15625;DHT22;7912;51.376;6.126;2023-02-10T09:20:05;6.20;99.90
15625;DHT22;7912;51.376;6.126;2023-02-10T09:22:33;6.30;99.90
15625;DHT22;7912;51.376;6.126;2023-02-10T09:25:01;6.30;99.90
15625;DHT22;7912;51.376;6.126;2023-02-10T09:27:28;6.40;99.90
15625;DHT22;7912;51.376;6.126;2023-02-10T09:29:56;6.50;99.90
15625;DHT22;7912;51.376;6.126;2023-02-10T09:32:23;6.50;99.90
15625;DHT22;7912;51.376;6.126;2023-02-10T09:34:50;6.60;99.90
15625;DHT22;7912;51.376;6.126;2023-02-10T09:37:18;6.60;99.90
15625;DHT22;7912;51.376;6.126;2023-02-10T09:39:45;6.70;99.90
15625;DHT22;7912;51.376;6.126;2023-02-10T09:42:26;6.70;99.90
15625;DHT22;7912;51.376;6.126;2023-02-10T09:45:15;6.80;99.90
15625;DHT22;7912;51.376;6.126;2023-02-10T09:47:52;7.00;99.90
15625;DHT22;7912;51.376;6.126;2023-02-10T09:50:54;7.10;99.90
15625;DHT22;7912;51.376;6.126;2023-02-10T09:53:31;7.30;99.90
15625;DHT22;7912;51.376;6.126;2023-02-10T09:56:04;7.40;99.90
15625;DHT22;7912;51.376;6.126;2023-02-10T09:58:41;7.50;99.90
15625;DHT22;7912;51.376;6.126;2023-02-10T10:04:13;7.80;99.90
15625;DHT22;7912;51.376;6.126;2023-02-10T10:06:55;7.90;99.90
15625;DHT22;7912;51.376;6.126;2023-02-10T10:12:18;8.10;99.90
15625;DHT22;7912;51.376;6.126;2023-02-10T10:14:46;8.10;99.90
15625;DHT22;7912;51.376;6.126;2023-02-10T10:23:11;8.20;99.90
15625;DHT22;7912;51.376;6.126;2023-02-10T10:31:50;8.40;99.90
15625;DHT22;7912;51.376;6.126;2023-02-10T10:34:28;8.40;99.90
15625;DHT22;7912;51.376;6.126;2023-02-10T10:36:58;8.50;99.90
15625;DHT22;7912;51.376;6.126;2023-02-10T10:39:35;8.60;99.90
15625;DHT22;7912;51.376;6.126;2023-02-10T10:42:45;8.90;99.90
15625;DHT22;7912;51.376;6.126;2023-02-10T10:50:57;9.70;99.90
15625;DHT22;7912;51.376;6.126;2023-02-10T10:53:52;10.00;99.90
15625;DHT22;7912;51.376;6.126;2023-02-10T10:56:45;10.30;99.90
15625;DHT22;7912;51.376;6.126;2023-02-10T10:59:31;10.60;99.90
15625;DHT22;7912;51.376;6.126;2023-02-10T11:05:11;11.20;99.90
15625;DHT22;7912;51.376;6.126;2023-02-10T11:07:41;11.50;99.90
15625;DHT22;7912;51.376;6.126;2023-02-10T11:10:49;11.80;99.90
15625;DHT22;7912;51.376;6.126;2023-02-10T11:13:26;12.00;99.90
15625;DHT22;7912;51.376;6.126;2023-02-10T11:16:10;12.30;99.90
15625;DHT22;7912;51.376;6.126;2023-02-10T11:18:59;12.50;99.90
15625;DHT22;7912;51.376;6.126;2023-02-10T11:21:39;12.70;99.90
15625;DHT22;7912;51.376;6.126;2023-02-10T11:24:25;12.90;99.90
15625;DHT22;7912;51.376;6.126;2023-02-10T11:27:04;13.00;99.90
15625;DHT22;7912;51.376;6.126;2023-02-10T11:29:54;13.20;99.90
15625;DHT22;7912;51.376;6.126;2023-02-10T11:32:28;13.30;99.90
15625;DHT22;7912;51.376;6.126;2023-02-10T11:35:03;13.40;99.90
15625;DHT22;7912;51.376;6.126;2023-02-10T11:37:37;13.50;99.90
15625;DHT22;7912;51.376;6.126;2023-02-10T11:40:24;13.60;99.90
15625;DHT22;7912;51.376;6.126;2023-02-10T11:42:56;13.60;99.90
15625;DHT22;7912;51.376;6.126;2023-02-10T11:45:31;13.80;99.90
15625;DHT22;7912;51.376;6.126;2023-02-10T11:48:18;13.90;99.90
15625;DHT22;7912;51.376;6.126;2023-02-10T11:50:47;14.00;99.90
15625;DHT22;7912;51.376;6.126;2023-02-10T11:53:27;14.10;99.90
15625;DHT22;7912;51.376;6.126;2023-02-10T11:59:54;14.30;99.90
15625;DHT22;7912;51.376;6.126;2023-02-10T12:06:15;14.60;99.90
15625;DHT22;7912;51.376;6.126;2023-02-10T12:09:41;14.80;99.90
15625;DHT22;7912;51.376;6.126;2023-02-10T12:12:57;14.90;99.90
15625;DHT22;7912;51.376;6.126;2023-02-10T12:25:44;15.10;99.00
15625;DHT22;7912;51.376;6.126;2023-02-10T12:31:00;15.10;98.70
15625;DHT22;7912;51.376;6.126;2023-02-10T12:39:21;15.20;98.30
15625;DHT22;7912;51.376;6.126;2023-02-10T12:53:57;15.20;96.90
15625;DHT22;7912;51.376;6.126;2023-02-10T12:56:37;15.20;97.30
15625;DHT22;7912;51.376;6.126;2023-02-10T12:59:17;15.10;97.10
15625;DHT22;7912;51.376;6.126;2023-02-10T13:01:54;15.10;97.00
15625;DHT22;7912;51.376;6.126;2023-02-10T13:04:35;15.00;97.40
15625;DHT22;7912;51.376;6.126;2023-02-10T13:13:26;14.80;96.60
15625;DHT22;7912;51.376;6.126;2023-02-10T13:16:15;14.70;96.70
15625;DHT22;7912;51.376;6.126;2023-02-10T13:22:18;14.60;96.80
15625;DHT22;7912;51.376;6.126;2023-02-10T13:25:08;14.60;96.80
15625;DHT22;7912;51.376;6.126;2023-02-10T13:30:44;14.80;96.30
15625;DHT22;7912;51.376;6.126;2023-02-10T13:36:40;15.00;95.80
15625;DHT22;7912;51.376;6.126;2023-02-10T13:39:24;15.10;96.00
15625;DHT22;7912;51.376;6.126;2023-02-10T13:45:04;15.30;94.40
15625;DHT22;7912;51.376;6.126;2023-02-10T13:52:53;15.70;94.80
15625;DHT22;7912;51.376;6.126;2023-02-10T14:00:50;16.10;93.50
15625;DHT22;7912;51.376;6.126;2023-02-10T14:03:24;16.20;92.40
15625;DHT22;7912;51.376;6.126;2023-02-10T14:06:12;16.20;92.80
15625;DHT22;7912;51.376;6.126;2023-02-10T14:08:46;16.30;92.30
15625;DHT22;7912;51.376;6.126;2023-02-10T14:14:15;16.30;92.20
15625;DHT22;7912;51.376;6.126;2023-02-10T14:16:45;16.30;91.50
15625;DHT22;7912;51.376;6.126;2023-02-10T14:21:59;16.30;91.30
15625;DHT22;7912;51.376;6.126;2023-02-10T14:24:30;16.20;91.60
15625;DHT22;7912;51.376;6.126;2023-02-10T14:27:17;16.10;91.10
15625;DHT22;7912;51.376;6.126;2023-02-10T14:30:21;15.90;91.00
15625;DHT22;7912;51.376;6.126;2023-02-10T14:32:45;15.70;91.10
15625;DHT22;7912;51.376;6.126;2023-02-10T14:35:22;15.50;91.50
15625;DHT22;7912;51.376;6.126;2023-02-10T14:37:57;15.30;91.30
15625;DHT22;7912;51.376;6.126;2023-02-10T14:40:28;15.10;91.80
15625;DHT22;7912;51.376;6.126;2023-02-10T14:43:01;14.90;91.90
15625;DHT22;7912;51.376;6.126;2023-02-10T14:45:29;14.80;92.20
15625;DHT22;7912;51.376;6.126;2023-02-10T14:47:59;14.70;92.50
15625;DHT22;7912;51.376;6.126;2023-02-10T14:50:35;14.50;92.60
15625;DHT22;7912;51.376;6.126;2023-02-10T14:53:05;14.40;92.70
15625;DHT22;7912;51.376;6.126;2023-02-10T14:55:36;14.30;93.30
15625;DHT22;7912;51.376;6.126;2023-02-10T14:58:16;14.20;93.50
15625;DHT22;7912;51.376;6.126;2023-02-10T15:03:25;14.10;93.60
15625;DHT22;7912;51.376;6.126;2023-02-10T15:05:54;14.00;93.70
15625;DHT22;7912;51.376;6.126;2023-02-10T15:08:33;13.90;93.70
15625;DHT22;7912;51.376;6.126;2023-02-10T15:11:12;13.80;93.70
15625;DHT22;7912;51.376;6.126;2023-02-10T15:13:46;13.70;93.90
15625;DHT22;7912;51.376;6.126;2023-02-10T15:16:15;13.60;94.00
15625;DHT22;7912;51.376;6.126;2023-02-10T15:18:47;13.50;94.20
15625;DHT22;7912;51.376;6.126;2023-02-10T15:21:35;13.40;94.30
15625;DHT22;7912;51.376;6.126;2023-02-10T15:24:18;13.20;94.60
15625;DHT22;7912;51.376;6.126;2023-02-10T15:27:17;13.10;94.70
15625;DHT22;7912;51.376;6.126;2023-02-10T15:29:48;13.00;95.00
15625;DHT22;7912;51.376;6.126;2023-02-10T15:32:17;13.00;95.30
15625;DHT22;7912;51.376;6.126;2023-02-10T15:34:46;12.90;95.50
15625;DHT22;7912;51.376;6.126;2023-02-10T15:37:35;12.90;95.70
15625;DHT22;7912;51.376;6.126;2023-02-10T15:40:36;12.80;96.00
15625;DHT22;7912;51.376;6.126;2023-02-10T15:43:28;12.80;96.00
15625;DHT22;7912;51.376;6.126;2023-02-10T15:46:26;12.70;96.20
15625;DHT22;7912;51.376;6.126;2023-02-10T15:49:11;12.70;96.30
15625;DHT22;7912;51.376;6.126;2023-02-10T15:51:44;12.60;96.40
15625;DHT22;7912;51.376;6.126;2023-02-10T15:54:24;12.60;96.30
15625;DHT22;7912;51.376;6.126;2023-02-10T15:56:57;12.50;96.60
15625;DHT22;7912;51.376;6.126;2023-02-10T15:59:28;12.50;96.70
15625;DHT22;7912;51.376;6.126;2023-02-10T16:01:58;12.40;96.70
15625;DHT22;7912;51.376;6.126;2023-02-10T16:04:28;12.30;96.90
15625;DHT22;7912;51.376;6.126;2023-02-10T16:06:57;12.30;97.00
15625;DHT22;7912;51.376;6.126;2023-02-10T16:09:27;12.20;97.10
15625;DHT22;7912;51.376;6.126;2023-02-10T16:11:58;12.10;97.20
15625;DHT22;7912;51.376;6.126;2023-02-10T16:14:27;12.10;97.40
15625;DHT22;7912;51.376;6.126;2023-02-10T16:16:59;12.00;97.50
15625;DHT22;7912;51.376;6.126;2023-02-10T16:19:30;11.90;97.70
15625;DHT22;7912;51.376;6.126;2023-02-10T16:21:58;11.90;97.80
15625;DHT22;7912;51.376;6.126;2023-02-10T16:24:32;11.80;97.90
15625;DHT22;7912;51.376;6.126;2023-02-10T16:27:02;11.70;98.00
15625;DHT22;7912;51.376;6.126;2023-02-10T16:29:42;11.70;98.20
15625;DHT22;7912;51.376;6.126;2023-02-10T16:32:14;11.60;98.50
15625;DHT22;7912;51.376;6.126;2023-02-10T16:34:43;11.50;98.60
15625;DHT22;7912;51.376;6.126;2023-02-10T16:37:20;11.50;98.80
15625;DHT22;7912;51.376;6.126;2023-02-10T16:39:55;11.40;99.30
15625;DHT22;7912;51.376;6.126;2023-02-10T16:42:24;11.30;99.40
15625;DHT22;7912;51.376;6.126;2023-02-10T16:45:01;11.30;99.70
15625;DHT22;7912;51.376;6.126;2023-02-10T16:47:41;11.20;99.90
15625;DHT22;7912;51.376;6.126;2023-02-10T16:50:24;11.20;99.90
15625;DHT22;7912;51.376;6.126;2023-02-10T16:52:56;11.20;99.90
15625;DHT22;7912;51.376;6.126;2023-02-10T16:55:23;11.10;99.90
15625;DHT22;7912;51.376;6.126;2023-02-10T16:57:52;11.10;99.90
15625;DHT22;7912;51.376;6.126;2023-02-10T17:00:20;11.10;99.90
15625;DHT22;7912;51.376;6.126;2023-02-10T17:02:49;11.10;99.90
15625;DHT22;7912;51.376;6.126;2023-02-10T17:05:17;11.00;99.90
15625;DHT22;7912;51.376;6.126;2023-02-10T17:07:46;11.00;99.90
15625;DHT22;7912;51.376;6.126;2023-02-10T17:10:24;11.00;99.90
15625;DHT22;7912;51.376;6.126;2023-02-10T17:12:53;10.90;99.90
15625;DHT22;7912;51.376;6.126;2023-02-10T17:15:24;10.80;99.90
15625;DHT22;7912;51.376;6.126;2023-02-10T17:17:52;10.80;99.90
15625;DHT22;7912;51.376;6.126;2023-02-10T17:20:25;10.80;99.90
15625;DHT22;7912;51.376;6.126;2023-02-10T17:22:56;10.80;99.90
15625;DHT22;7912;51.376;6.126;2023-02-10T17:25:24;10.70;99.90
15625;DHT22;7912;51.376;6.126;2023-02-10T17:27:52;10.70;99.90
15625;DHT22;7912;51.376;6.126;2023-02-10T17:30:22;10.70;99.90
15625;DHT22;7912;51.376;6.126;2023-02-10T17:32:51;10.60;99.90
15625;DHT22;7912;51.376;6.126;2023-02-10T17:35:21;10.60;99.90
15625;DHT22;7912;51.376;6.126;2023-02-10T17:37:50;10.60;99.90
15625;DHT22;7912;51.376;6.126;2023-02-10T17:40:36;10.50;99.90
15625;DHT22;7912;51.376;6.126;2023-02-10T17:43:03;10.50;99.90
15625;DHT22;7912;51.376;6.126;2023-02-10T17:45:30;10.50;99.90
15625;DHT22;7912;51.376;6.126;2023-02-10T17:47:58;10.50;99.90
15625;DHT22;7912;51.376;6.126;2023-02-10T17:50:25;10.40;99.90
15625;DHT22;7912;51.376;6.126;2023-02-10T17:52:52;10.40;99.90
15625;DHT22;7912;51.376;6.126;2023-02-10T17:55:20;10.40;99.90
15625;DHT22;7912;51.376;6.126;2023-02-10T17:57:48;10.30;99.90
15625;DHT22;7912;51.376;6.126;2023-02-10T18:00:17;10.40;99.90
15625;DHT22;7912;51.376;6.126;2023-02-10T18:05:52;10.30;99.90
15625;DHT22;7912;51.376;6.126;2023-02-10T18:08:22;10.40;99.90
15625;DHT22;7912;51.376;6.126;2023-02-10T18:10:49;10.30;99.90
15625;DHT22;7912;51.376;6.126;2023-02-10T18:13:17;10.30;99.90
15625;DHT22;7912;51.376;6.126;2023-02-10T18:15:45;10.30;99.90
15625;DHT22;7912;51.376;6.126;2023-02-10T18:18:12;10.30;99.90
15625;DHT22;7912;51.376;6.126;2023-02-10T18:20:43;10.30;99.90
15625;DHT22;7912;51.376;6.126;2023-02-10T18:23:11;10.20;99.90
15625;DHT22;7912;51.376;6.126;2023-02-10T18:25:38;10.20;99.90
15625;DHT22;7912;51.376;6.126;2023-02-10T18:28:06;10.20;99.90
15625;DHT22;7912;51.376;6.126;2023-02-10T18:30:34;10.20;99.90
15625;DHT22;7912;51.376;6.126;2023-02-10T18:33:02;10.20;99.90
15625;DHT22;7912;51.376;6.126;2023-02-10T18:35:30;10.20;99.90
15625;DHT22;7912;51.376;6.126;2023-02-10T18:38:03;10.20;99.90
15625;DHT22;7912;51.376;6.126;2023-02-10T18:40:41;10.10;99.90
15625;DHT22;7912;51.376;6.126;2023-02-10T18:43:09;10.10;99.90